createdAt,value
2022-08-17T00:00:01.346Z,21.33
2022-08-17T00:00:49.084Z,21.36
2022-08-17T00:01:52.826Z,21.36
2022-08-17T00:02:44.008Z,21.37
2022-08-17T00:03:41.306Z,21.31
2022-08-17T00:04:40.303Z,21.22
2022-08-17T00:05:41.018Z,21.24
2022-08-17T00:06:40.315Z,21.16
2022-08-17T00:07:40.277Z,21.18
2022-08-17T00:08:43.021Z,21.33
2022-08-17T00:09:43.413Z,21.16
2022-08-17T00:10:41.019Z,21.16
2022-08-17T00:11:40.213Z,21.26
2022-08-17T00:12:43.053Z,21.22
2022-08-17T00:13:41.430Z,21.13
2022-08-17T00:14:40.166Z,21.09
2022-08-17T00:15:40.175Z,21.12
2022-08-17T00:16:51.943Z,21.05
2022-08-17T00:17:41.163Z,21.01
2022-08-17T00:19:00.937Z,20.96
2022-08-17T00:19:41.094Z,20.97
2022-08-17T00:20:40.133Z,20.94
2022-08-17T00:22:31.003Z,20.88
2022-08-17T00:22:41.131Z,20.97
2022-08-17T00:23:44.447Z,20.94
2022-08-17T00:24:41.068Z,20.88
2022-08-17T00:25:40.080Z,20.94
2022-08-17T00:26:45.391Z,20.85
2022-08-17T00:27:40.017Z,20.88
2022-08-17T00:28:39.999Z,20.94
2022-08-17T00:29:40.029Z,20.90
2022-08-17T00:30:53.164Z,20.91
2022-08-17T00:31:40.993Z,20.90
2022-08-17T00:33:23.113Z,20.88
2022-08-17T00:33:40.948Z,20.91
2022-08-17T00:34:39.965Z,20.93
2022-08-17T00:35:39.946Z,20.90
2022-08-17T00:36:39.948Z,20.85
2022-08-17T00:37:39.931Z,20.81
2022-08-17T00:38:39.888Z,20.79
2022-08-17T00:39:39.942Z,20.81
2022-08-17T00:40:44.663Z,20.79
2022-08-17T00:41:42.528Z,20.69
2022-08-17T00:42:39.918Z,20.78
2022-08-17T00:43:39.877Z,20.72
2022-08-17T00:45:00.832Z,20.78
2022-08-17T00:45:39.813Z,20.78
2022-08-17T00:46:39.815Z,20.75
2022-08-17T00:47:39.792Z,20.73
2022-08-17T00:48:39.784Z,20.71
2022-08-17T00:49:39.803Z,20.75
2022-08-17T00:50:39.757Z,20.75
2022-08-17T00:51:40.522Z,20.69
2022-08-17T00:52:39.773Z,20.71
2022-08-17T00:53:39.751Z,20.75
2022-08-17T00:54:42.108Z,20.72
2022-08-17T00:55:40.704Z,20.71
2022-08-17T00:56:39.711Z,20.73
2022-08-17T00:57:39.714Z,20.72
2022-08-17T00:58:39.687Z,20.76
2022-08-17T00:59:39.698Z,20.71
2022-08-17T01:00:39.673Z,20.78
2022-08-17T01:01:39.717Z,20.66
2022-08-17T01:02:42.310Z,20.75
2022-08-17T01:03:40.627Z,20.69
2022-08-17T01:04:39.610Z,20.64
2022-08-17T01:05:42.092Z,20.64
2022-08-17T01:06:39.571Z,20.66
2022-08-17T01:07:39.605Z,20.71
2022-08-17T01:08:39.556Z,20.66
2022-08-17T01:09:39.541Z,20.66
2022-08-17T01:11:00.917Z,20.64
2022-08-17T01:11:40.525Z,20.64
2022-08-17T01:12:39.584Z,20.61
2022-08-17T01:13:41.138Z,20.64
2022-08-17T01:14:39.503Z,20.64
2022-08-17T01:15:40.030Z,20.58
2022-08-17T01:16:39.480Z,20.66
2022-08-17T01:17:39.453Z,20.63
2022-08-17T01:18:39.487Z,20.66
2022-08-17T01:19:39.501Z,20.54
2022-08-17T01:20:47.932Z,20.66
2022-08-17T01:21:40.415Z,20.61
2022-08-17T01:22:39.437Z,20.57
2022-08-17T01:23:39.421Z,20.56
2022-08-17T01:24:39.396Z,20.41
2022-08-17T01:25:39.384Z,20.30
2022-08-17T01:26:39.349Z,20.20
2022-08-17T01:27:39.381Z,20.12
2022-08-17T01:28:54.974Z,20.08
2022-08-17T01:29:40.321Z,20.04
2022-08-17T01:30:58.744Z,19.92
2022-08-17T01:31:40.315Z,20.00
2022-08-17T01:32:39.301Z,19.97
2022-08-17T01:33:39.331Z,20.00
2022-08-17T01:34:43.516Z,19.90
2022-08-17T01:35:40.255Z,20.00
2022-08-17T01:36:39.263Z,19.97
2022-08-17T01:37:39.240Z,20.13
2022-08-17T01:38:40.026Z,20.20
2022-08-17T01:39:39.331Z,20.23
2022-08-17T01:40:39.284Z,20.22
2022-08-17T01:41:39.183Z,20.25
2022-08-17T01:42:39.209Z,20.33
2022-08-17T01:43:39.170Z,20.30
2022-08-17T01:44:39.177Z,20.31
2022-08-17T01:45:39.157Z,20.41
2022-08-17T01:46:39.174Z,20.41
2022-08-17T01:47:46.043Z,20.44
2022-08-17T01:48:39.159Z,20.41
2022-08-17T01:49:39.112Z,20.44
2022-08-17T01:50:39.103Z,20.42
2022-08-17T01:51:39.557Z,20.46
2022-08-17T01:52:39.075Z,20.44
2022-08-17T01:53:39.075Z,20.44
2022-08-17T01:54:39.066Z,20.38
2022-08-17T01:55:40.067Z,20.34
2022-08-17T01:56:39.059Z,20.42
2022-08-17T01:57:39.043Z,20.46
2022-08-17T01:58:45.532Z,20.35
2022-08-17T01:59:39.009Z,20.38
2022-08-17T02:01:00.043Z,20.27
2022-08-17T02:01:40.072Z,20.31
2022-08-17T02:02:38.979Z,20.31
2022-08-17T02:03:39.003Z,20.25
2022-08-17T02:04:38.952Z,20.30
2022-08-17T02:05:38.955Z,20.30
2022-08-17T02:06:52.894Z,20.23
2022-08-17T02:07:59.834Z,20.17
2022-08-17T02:09:02.339Z,20.19
2022-08-17T02:09:39.944Z,20.23
2022-08-17T02:10:38.889Z,20.22
2022-08-17T02:11:39.872Z,20.16
2022-08-17T02:12:39.893Z,20.02
2022-08-17T02:13:38.853Z,20.15
2022-08-17T02:14:38.874Z,20.10
2022-08-17T02:15:39.540Z,20.08
2022-08-17T02:16:41.541Z,20.07
2022-08-17T02:17:38.815Z,20.07
2022-08-17T02:18:38.821Z,19.94
2022-08-17T02:19:38.815Z,19.98
2022-08-17T02:20:42.366Z,19.89
2022-08-17T02:21:39.766Z,19.90
2022-08-17T02:22:38.774Z,19.87
2022-08-17T02:23:38.779Z,19.82
2022-08-17T02:25:00.522Z,19.72
2022-08-17T02:25:39.723Z,19.71
2022-08-17T02:26:38.734Z,19.79
2022-08-17T02:27:38.700Z,19.71
2022-08-17T02:28:38.698Z,19.76
2022-08-17T02:29:38.695Z,19.64
2022-08-17T02:31:02.146Z,19.72
2022-08-17T02:31:39.659Z,19.70
2022-08-17T02:32:39.540Z,19.70
2022-08-17T02:33:42.827Z,19.76
2022-08-17T02:34:39.668Z,19.65
2022-08-17T02:35:38.630Z,19.71
2022-08-17T02:36:38.618Z,19.70
2022-08-17T02:37:38.591Z,19.70
2022-08-17T02:38:38.609Z,19.62
2022-08-17T02:39:38.657Z,19.61
2022-08-17T02:40:38.595Z,19.68
2022-08-17T02:41:38.569Z,19.64
2022-08-17T02:42:38.592Z,19.61
2022-08-17T02:43:38.537Z,19.61
2022-08-17T02:44:39.965Z,19.68
2022-08-17T02:45:38.509Z,19.61
2022-08-17T02:46:41.053Z,19.64
2022-08-17T02:47:38.486Z,19.61
2022-08-17T02:48:38.510Z,19.53
2022-08-17T02:49:38.482Z,19.49
2022-08-17T02:50:38.455Z,19.39
2022-08-17T02:51:39.049Z,19.34
2022-08-17T02:52:43.528Z,19.31
2022-08-17T02:53:39.576Z,19.31
2022-08-17T02:54:41.251Z,19.30
2022-08-17T02:55:38.418Z,19.24
2022-08-17T02:56:38.420Z,19.20
2022-08-17T02:57:38.395Z,19.20
2022-08-17T02:58:38.387Z,19.24
2022-08-17T02:59:38.366Z,19.17
2022-08-17T03:00:39.049Z,19.25
2022-08-17T03:01:38.519Z,19.24
2022-08-17T03:02:38.388Z,19.16
2022-08-17T03:03:38.323Z,19.23
2022-08-17T03:04:38.320Z,19.28
2022-08-17T03:05:38.287Z,19.13
2022-08-17T03:06:41.059Z,19.16
2022-08-17T03:07:38.295Z,19.16
2022-08-17T03:08:38.283Z,19.20
2022-08-17T03:09:38.270Z,19.10
2022-08-17T03:10:38.253Z,19.07
2022-08-17T03:11:38.221Z,19.09
2022-08-17T03:12:38.227Z,19.02
2022-08-17T03:13:38.228Z,18.97
2022-08-17T03:14:41.414Z,18.96
2022-08-17T03:15:38.180Z,18.93
2022-08-17T03:16:41.065Z,18.91
2022-08-17T03:17:38.174Z,18.91
2022-08-17T03:18:39.057Z,18.99
2022-08-17T03:19:39.698Z,18.94
2022-08-17T03:20:39.137Z,19.06
2022-08-17T03:21:38.129Z,19.07
2022-08-17T03:22:38.410Z,19.13
2022-08-17T03:23:38.141Z,19.16
2022-08-17T03:24:38.114Z,19.13
2022-08-17T03:25:38.679Z,19.20
2022-08-17T03:26:38.575Z,19.17
2022-08-17T03:27:38.245Z,19.21
2022-08-17T03:28:38.049Z,19.17
2022-08-17T03:29:38.036Z,19.23
2022-08-17T03:30:38.009Z,19.17
2022-08-17T03:31:38.039Z,19.16
2022-08-17T03:32:38.004Z,19.13
2022-08-17T03:33:37.985Z,19.15
2022-08-17T03:34:38.016Z,19.13
2022-08-17T03:35:37.974Z,18.94
2022-08-17T03:36:37.963Z,18.96
2022-08-17T03:37:37.938Z,18.93
2022-08-17T03:38:39.061Z,18.96
2022-08-17T03:39:38.034Z,18.94
2022-08-17T03:40:57.256Z,18.91
2022-08-17T03:41:38.932Z,18.94
2022-08-17T03:42:37.890Z,18.91
2022-08-17T03:43:37.871Z,18.93
2022-08-17T03:44:38.548Z,18.86
2022-08-17T03:45:38.560Z,18.91
2022-08-17T03:46:38.110Z,18.91
2022-08-17T03:47:37.841Z,18.78
2022-08-17T03:48:37.864Z,18.78
2022-08-17T03:49:37.806Z,18.64
2022-08-17T03:50:37.812Z,18.76
2022-08-17T03:51:37.809Z,18.84
2022-08-17T03:52:37.779Z,18.82
2022-08-17T03:53:37.774Z,18.76
2022-08-17T03:54:37.762Z,18.76
2022-08-17T03:55:37.743Z,18.75
2022-08-17T03:56:37.758Z,18.82
2022-08-17T03:57:37.755Z,18.83
2022-08-17T03:58:37.723Z,18.89
2022-08-17T03:59:37.739Z,18.89
2022-08-17T04:00:39.764Z,18.90
2022-08-17T04:01:37.799Z,18.90
2022-08-17T04:02:37.696Z,18.76
2022-08-17T04:03:37.659Z,18.87
2022-08-17T04:04:37.635Z,18.90
2022-08-17T04:05:37.642Z,18.90
2022-08-17T04:06:37.622Z,18.86
2022-08-17T04:07:37.615Z,18.93
2022-08-17T04:08:37.641Z,18.94
2022-08-17T04:09:37.599Z,18.91
2022-08-17T04:10:41.362Z,18.94
2022-08-17T04:11:38.574Z,18.93
2022-08-17T04:12:37.577Z,18.94
2022-08-17T04:13:37.545Z,18.91
2022-08-17T04:14:52.213Z,18.96
2022-08-17T04:15:39.061Z,18.97
2022-08-17T04:16:37.516Z,19.06
2022-08-17T04:17:37.514Z,19.10
2022-08-17T04:18:37.523Z,19.20
2022-08-17T04:19:37.506Z,19.17
2022-08-17T04:20:37.482Z,19.21
2022-08-17T04:21:37.466Z,19.15
2022-08-17T04:22:37.452Z,19.20
2022-08-17T04:23:37.472Z,19.23
2022-08-17T04:24:37.440Z,19.24
2022-08-17T04:25:37.447Z,19.23
2022-08-17T04:26:53.423Z,19.23
2022-08-17T04:27:38.395Z,19.23
2022-08-17T04:28:37.595Z,19.17
2022-08-17T04:29:49.947Z,19.23
2022-08-17T04:30:38.378Z,19.20
2022-08-17T04:31:37.350Z,19.27
2022-08-17T04:33:00.673Z,19.27
2022-08-17T04:33:38.332Z,19.27
2022-08-17T04:34:37.589Z,19.39
2022-08-17T04:35:37.330Z,19.43
2022-08-17T04:36:37.314Z,19.45
2022-08-17T04:37:52.057Z,19.34
2022-08-17T04:38:37.284Z,19.47
2022-08-17T04:39:37.326Z,19.46
2022-08-17T04:40:37.312Z,19.42
2022-08-17T04:41:38.065Z,19.57
2022-08-17T04:42:38.247Z,19.49
2022-08-17T04:43:37.233Z,19.46
2022-08-17T04:44:38.187Z,19.57
2022-08-17T04:45:37.229Z,19.58
2022-08-17T04:46:37.220Z,19.52
2022-08-17T04:47:37.171Z,19.52
2022-08-17T04:48:37.672Z,19.45
2022-08-17T04:49:37.155Z,19.57
2022-08-17T04:50:37.143Z,19.55
2022-08-17T04:51:37.152Z,19.58
2022-08-17T04:52:43.265Z,19.58
2022-08-17T04:53:41.081Z,19.40
2022-08-17T04:54:37.115Z,19.40
2022-08-17T04:55:37.089Z,19.52
2022-08-17T04:56:37.103Z,19.52
2022-08-17T04:57:40.619Z,19.52
2022-08-17T04:58:40.599Z,19.61
2022-08-17T04:59:37.040Z,19.62
2022-08-17T05:00:37.047Z,19.65
2022-08-17T05:01:37.152Z,19.62
2022-08-17T05:02:37.019Z,19.70
2022-08-17T05:03:38.002Z,19.64
2022-08-17T05:04:36.982Z,19.68
2022-08-17T05:05:36.986Z,19.64
2022-08-17T05:06:36.998Z,19.65
2022-08-17T05:07:36.955Z,19.68
2022-08-17T05:08:36.944Z,19.62
2022-08-17T05:09:36.938Z,19.58
2022-08-17T05:10:36.929Z,19.61
2022-08-17T05:11:36.939Z,19.61
2022-08-17T05:12:36.919Z,19.64
2022-08-17T05:13:36.887Z,19.61
2022-08-17T05:14:36.896Z,19.68
2022-08-17T05:15:36.897Z,19.71
2022-08-17T05:16:36.852Z,19.62
2022-08-17T05:17:36.880Z,19.62
2022-08-17T05:18:36.839Z,19.62
2022-08-17T05:19:37.393Z,19.58
2022-08-17T05:20:36.829Z,19.70
2022-08-17T05:21:36.804Z,19.76
2022-08-17T05:22:36.837Z,19.76
2022-08-17T05:23:42.929Z,19.79
2022-08-17T05:24:40.696Z,19.71
2022-08-17T05:25:37.770Z,19.70
2022-08-17T05:26:39.577Z,19.76
2022-08-17T05:27:36.735Z,19.71
2022-08-17T05:28:36.771Z,19.80
2022-08-17T05:29:36.717Z,19.78
2022-08-17T05:30:36.700Z,19.82
2022-08-17T05:31:36.731Z,19.82
2022-08-17T05:32:39.508Z,19.79
2022-08-17T05:33:41.447Z,19.82
2022-08-17T05:34:37.683Z,19.87
2022-08-17T05:35:40.100Z,19.89
2022-08-17T05:36:42.332Z,20.00
2022-08-17T05:37:37.625Z,19.98
2022-08-17T05:38:36.665Z,19.92
2022-08-17T05:39:36.656Z,20.01
2022-08-17T05:40:36.625Z,20.00
2022-08-17T05:41:36.616Z,20.10
2022-08-17T05:42:36.586Z,20.12
2022-08-17T05:43:36.561Z,20.10
2022-08-17T05:44:36.588Z,20.20
2022-08-17T05:45:54.633Z,20.20
2022-08-17T05:46:37.543Z,20.26
2022-08-17T05:47:36.533Z,20.37
2022-08-17T05:48:39.795Z,20.30
2022-08-17T05:49:36.504Z,20.35
2022-08-17T05:50:36.520Z,20.42
2022-08-17T05:51:36.507Z,20.42
2022-08-17T05:52:36.477Z,20.34
2022-08-17T05:53:37.085Z,20.41
2022-08-17T05:54:36.442Z,20.48
2022-08-17T05:55:36.445Z,20.41
2022-08-17T05:56:36.458Z,20.42
2022-08-17T05:57:36.453Z,20.41
2022-08-17T05:58:37.072Z,20.50
2022-08-17T05:59:36.404Z,20.41
2022-08-17T06:00:36.516Z,20.51
2022-08-17T06:01:37.427Z,20.42
2022-08-17T06:02:36.392Z,20.46
2022-08-17T06:03:36.400Z,20.42
2022-08-17T06:04:36.349Z,20.50
2022-08-17T06:05:37.108Z,20.54
2022-08-17T06:06:36.314Z,20.50
2022-08-17T06:07:36.376Z,20.60
2022-08-17T06:08:36.286Z,20.61
2022-08-17T06:09:36.290Z,20.66
2022-08-17T06:10:36.279Z,20.64
2022-08-17T06:11:36.266Z,20.64
2022-08-17T06:12:36.254Z,20.61
2022-08-17T06:13:36.332Z,20.66
2022-08-17T06:14:36.243Z,20.76
2022-08-17T06:15:36.231Z,20.79
2022-08-17T06:16:36.209Z,20.81
2022-08-17T06:17:36.214Z,20.79
2022-08-17T06:18:36.212Z,20.75
2022-08-17T06:19:36.220Z,20.81
2022-08-17T06:20:36.165Z,20.81
2022-08-17T06:21:36.163Z,20.83
2022-08-17T06:22:36.139Z,20.82
2022-08-17T06:23:36.139Z,20.83
2022-08-17T06:24:36.151Z,20.93
2022-08-17T06:25:36.116Z,20.91
2022-08-17T06:26:38.493Z,20.94
2022-08-17T06:27:36.099Z,20.98
2022-08-17T06:28:36.078Z,20.94
2022-08-17T06:29:36.071Z,21.00
2022-08-17T06:30:58.395Z,21.00
2022-08-17T06:31:37.051Z,21.00
2022-08-17T06:32:36.035Z,20.97
2022-08-17T06:33:36.043Z,21.05
2022-08-17T06:34:36.028Z,21.01
2022-08-17T06:35:36.053Z,20.96
2022-08-17T06:36:36.036Z,20.98
2022-08-17T06:37:35.993Z,21.08
2022-08-17T06:38:38.537Z,21.05
2022-08-17T06:39:36.048Z,21.06
2022-08-17T06:40:35.963Z,21.01
2022-08-17T06:41:37.966Z,21.09
2022-08-17T06:42:54.138Z,21.13
2022-08-17T06:43:36.930Z,21.11
2022-08-17T06:44:42.128Z,21.18
2022-08-17T06:45:36.891Z,21.22
2022-08-17T06:46:38.624Z,21.26
2022-08-17T06:47:36.115Z,21.26
2022-08-17T06:48:35.863Z,21.15
2022-08-17T06:49:35.845Z,21.24
2022-08-17T06:50:35.857Z,21.16
2022-08-17T06:51:35.877Z,21.27
2022-08-17T06:52:45.990Z,21.27
2022-08-17T06:53:36.799Z,21.40
2022-08-17T06:54:35.830Z,21.42
2022-08-17T06:55:38.589Z,21.46
2022-08-17T06:56:53.408Z,21.37
2022-08-17T06:57:36.798Z,21.49
2022-08-17T06:58:35.795Z,21.55
2022-08-17T06:59:35.757Z,21.61
2022-08-17T07:00:37.648Z,21.58
2022-08-17T07:01:35.795Z,21.64
2022-08-17T07:02:52.457Z,21.63
2022-08-17T07:03:37.116Z,21.63
2022-08-17T07:04:35.718Z,21.66
2022-08-17T07:05:35.689Z,21.82
2022-08-17T07:06:38.043Z,21.75
2022-08-17T07:07:35.663Z,21.86
2022-08-17T07:08:35.667Z,21.83
2022-08-17T07:09:37.633Z,21.85
2022-08-17T07:10:35.619Z,22.02
2022-08-17T07:11:35.608Z,22.01
2022-08-17T07:12:42.667Z,22.11
2022-08-17T07:13:35.622Z,22.12
2022-08-17T07:14:35.621Z,22.19
2022-08-17T07:15:36.096Z,22.21
2022-08-17T07:16:35.553Z,22.30
2022-08-17T07:17:47.588Z,22.30
2022-08-17T07:18:36.536Z,22.41
2022-08-17T07:19:35.520Z,22.49
2022-08-17T07:20:35.549Z,22.59
2022-08-17T07:21:35.497Z,22.61
2022-08-17T07:22:58.121Z,22.64
2022-08-17T07:23:36.617Z,22.75
2022-08-17T07:24:35.510Z,22.82
2022-08-17T07:25:35.465Z,22.78
2022-08-17T07:26:38.088Z,22.97
2022-08-17T07:27:35.449Z,22.91
2022-08-17T07:28:35.421Z,22.96
2022-08-17T07:29:35.410Z,23.07
2022-08-17T07:30:37.116Z,23.07
2022-08-17T07:31:43.105Z,23.21
2022-08-17T07:32:36.088Z,23.21
2022-08-17T07:33:36.123Z,23.22
2022-08-17T07:34:35.351Z,23.26
2022-08-17T07:35:40.760Z,23.37
2022-08-17T07:36:36.327Z,23.26
2022-08-17T07:37:38.095Z,23.32
2022-08-17T07:38:35.338Z,23.41
2022-08-17T07:39:58.831Z,23.47
2022-08-17T07:40:36.377Z,23.49
2022-08-17T07:41:57.573Z,23.57
2022-08-17T07:42:39.721Z,23.54
2022-08-17T07:43:36.114Z,23.59
2022-08-17T07:44:35.257Z,23.60
2022-08-17T07:45:35.241Z,23.62
2022-08-17T07:46:35.254Z,23.68
2022-08-17T07:47:38.110Z,23.67
2022-08-17T07:48:35.213Z,23.75
2022-08-17T07:49:35.208Z,23.82
2022-08-17T07:50:35.195Z,23.89
2022-08-17T07:51:35.630Z,23.92
2022-08-17T07:52:50.464Z,23.96
2022-08-17T07:53:36.163Z,24.05
2022-08-17T07:54:35.154Z,24.12
2022-08-17T07:55:35.148Z,24.15
2022-08-17T07:56:35.637Z,24.15
2022-08-17T07:57:35.133Z,24.16
2022-08-17T07:58:35.124Z,24.24
2022-08-17T07:59:35.601Z,24.29
2022-08-17T08:00:35.083Z,24.29
2022-08-17T08:01:41.597Z,24.34
2022-08-17T08:02:36.082Z,24.41
2022-08-17T08:03:35.060Z,24.42
2022-08-17T08:05:00.516Z,24.39
2022-08-17T08:05:50.421Z,24.53
2022-08-17T08:06:36.020Z,24.48
2022-08-17T08:07:35.012Z,24.53
2022-08-17T08:08:35.012Z,24.53
2022-08-17T08:09:34.998Z,24.46
2022-08-17T08:10:37.613Z,24.46
2022-08-17T08:11:34.967Z,24.49
2022-08-17T08:12:34.977Z,24.33
2022-08-17T08:13:35.228Z,24.31
2022-08-17T08:14:34.934Z,24.37
2022-08-17T08:15:34.932Z,24.30
2022-08-17T08:16:34.921Z,24.33
2022-08-17T08:17:34.903Z,24.41
2022-08-17T08:18:53.313Z,24.34
2022-08-17T08:19:35.882Z,24.44
2022-08-17T08:20:52.184Z,24.61
2022-08-17T08:21:35.882Z,24.59
2022-08-17T08:22:34.851Z,24.52
2022-08-17T08:23:35.712Z,24.63
2022-08-17T08:24:34.830Z,24.49
2022-08-17T08:25:34.823Z,24.46
2022-08-17T08:26:34.809Z,24.37
2022-08-17T08:27:34.820Z,24.51
2022-08-17T08:28:35.141Z,24.49
2022-08-17T08:29:34.805Z,24.63
2022-08-17T08:30:34.771Z,24.67
2022-08-17T08:31:37.758Z,24.61
2022-08-17T08:32:35.743Z,24.82
2022-08-17T08:33:34.744Z,24.98
2022-08-17T08:34:45.036Z,24.98
2022-08-17T08:35:35.729Z,25.08
2022-08-17T08:37:12.598Z,25.24
2022-08-17T08:37:40.539Z,25.38
2022-08-17T08:38:35.699Z,25.48
2022-08-17T08:39:34.727Z,25.53
2022-08-17T08:40:34.652Z,25.66
2022-08-17T08:41:34.648Z,25.64
2022-08-17T08:42:34.641Z,25.78
2022-08-17T08:43:34.667Z,25.85
2022-08-17T08:44:59.926Z,26.01
2022-08-17T08:45:35.605Z,26.09
2022-08-17T08:46:34.600Z,26.00
2022-08-17T08:47:35.543Z,26.08
2022-08-17T08:48:53.086Z,26.21
2022-08-17T08:50:01.821Z,26.08
2022-08-17T08:50:38.501Z,26.21
2022-08-17T08:51:34.546Z,26.17
2022-08-17T08:52:34.530Z,26.17
2022-08-17T08:53:34.534Z,26.21
2022-08-17T08:54:37.109Z,26.27
2022-08-17T08:55:41.120Z,26.34
2022-08-17T08:56:34.508Z,26.35
2022-08-17T08:57:35.122Z,26.36
2022-08-17T08:58:41.620Z,26.44
2022-08-17T08:59:35.453Z,26.50
2022-08-17T09:00:36.126Z,26.56
2022-08-17T09:01:34.499Z,26.38
2022-08-17T09:02:34.962Z,26.54
2022-08-17T09:03:52.271Z,26.50
2022-08-17T09:04:50.185Z,26.36
2022-08-17T09:05:35.384Z,26.44
2022-08-17T09:06:39.017Z,26.38
2022-08-17T09:07:34.390Z,26.44
2022-08-17T09:08:34.388Z,26.36
2022-08-17T09:09:34.368Z,26.51
2022-08-17T09:10:35.135Z,26.39
2022-08-17T09:11:34.337Z,26.21
2022-08-17T09:12:38.134Z,26.31
2022-08-17T09:13:34.654Z,26.29
2022-08-17T09:14:47.163Z,26.31
2022-08-17T09:15:36.117Z,26.35
2022-08-17T09:16:34.270Z,26.44
2022-08-17T09:17:34.267Z,26.31
2022-08-17T09:19:01.230Z,26.34
2022-08-17T09:19:35.259Z,26.36
2022-08-17T09:20:35.126Z,26.39
2022-08-17T09:21:37.127Z,26.38
2022-08-17T09:22:34.213Z,26.50
2022-08-17T09:23:35.172Z,26.64
2022-08-17T09:24:34.212Z,26.64
2022-08-17T09:25:34.192Z,26.59
2022-08-17T09:26:35.120Z,26.36
2022-08-17T09:27:35.126Z,26.31
2022-08-17T09:28:34.146Z,26.27
2022-08-17T09:29:34.155Z,26.29
2022-08-17T09:30:34.141Z,26.24
2022-08-17T09:31:49.441Z,26.31
2022-08-17T09:32:34.097Z,26.36
2022-08-17T09:33:34.089Z,26.42
2022-08-17T09:34:34.079Z,26.49
2022-08-17T09:35:37.021Z,26.42
2022-08-17T09:36:36.626Z,26.50
2022-08-17T09:37:34.044Z,26.51
2022-08-17T09:38:34.041Z,26.61
2022-08-17T09:39:34.050Z,26.69
2022-08-17T09:40:36.637Z,26.64
2022-08-17T09:41:34.062Z,26.60
2022-08-17T09:42:34.019Z,26.72
2022-08-17T09:43:33.988Z,26.73
2022-08-17T09:44:34.620Z,26.75
2022-08-17T09:45:33.956Z,26.86
2022-08-17T09:46:33.959Z,26.88
2022-08-17T09:47:33.964Z,26.97
2022-08-17T09:48:34.641Z,26.96
2022-08-17T09:49:33.928Z,26.98
2022-08-17T09:51:03.609Z,26.84
2022-08-17T09:51:34.926Z,26.73
2022-08-17T09:52:33.903Z,26.71
2022-08-17T09:53:33.882Z,26.75
2022-08-17T09:54:41.108Z,26.88
2022-08-17T09:55:34.852Z,26.90
2022-08-17T09:56:33.878Z,26.93
2022-08-17T09:57:33.958Z,26.73
2022-08-17T09:58:34.075Z,26.87
2022-08-17T09:59:38.172Z,26.97
2022-08-17T10:00:33.811Z,27.02
2022-08-17T10:01:33.873Z,27.08
2022-08-17T10:02:33.782Z,27.15
2022-08-17T10:03:33.931Z,27.11
2022-08-17T10:04:33.964Z,27.16
2022-08-17T10:05:33.741Z,27.06
2022-08-17T10:06:33.868Z,26.91
2022-08-17T10:07:33.724Z,26.71
2022-08-17T10:08:33.891Z,26.64
2022-08-17T10:09:33.706Z,26.76
2022-08-17T10:10:33.719Z,26.72
2022-08-17T10:11:34.028Z,26.75
2022-08-17T10:12:33.689Z,26.73
2022-08-17T10:13:33.665Z,26.72
2022-08-17T10:14:37.484Z,26.75
2022-08-17T10:15:34.632Z,26.72
2022-08-17T10:16:33.632Z,26.69
2022-08-17T10:17:33.637Z,26.73
2022-08-17T10:18:33.625Z,26.75
2022-08-17T10:19:40.135Z,26.79
2022-08-17T10:20:33.612Z,26.72
2022-08-17T10:21:33.567Z,26.78
2022-08-17T10:22:35.619Z,26.73
2022-08-17T10:23:33.553Z,26.72
2022-08-17T10:24:33.672Z,26.78
2022-08-17T10:25:53.457Z,26.79
2022-08-17T10:26:42.997Z,26.86
2022-08-17T10:27:35.140Z,26.73
2022-08-17T10:28:33.504Z,26.84
2022-08-17T10:29:49.094Z,26.86
2022-08-17T10:30:34.510Z,26.87
2022-08-17T10:31:35.090Z,26.88
2022-08-17T10:32:33.458Z,26.93
2022-08-17T10:33:33.453Z,26.94
2022-08-17T10:34:36.195Z,26.81
2022-08-17T10:35:34.456Z,26.83
2022-08-17T10:36:34.133Z,26.87
2022-08-17T10:37:36.143Z,26.88
2022-08-17T10:38:33.391Z,26.73
2022-08-17T10:39:36.182Z,26.72
2022-08-17T10:40:34.394Z,26.65
2022-08-17T10:41:38.202Z,26.68
2022-08-17T10:42:34.367Z,26.66
2022-08-17T10:43:34.647Z,26.86
2022-08-17T10:44:37.972Z,26.88
2022-08-17T10:45:34.326Z,27.01
2022-08-17T10:46:48.141Z,27.09
2022-08-17T10:47:52.701Z,27.03
2022-08-17T10:48:34.297Z,26.97
2022-08-17T10:49:33.271Z,26.98
2022-08-17T10:50:33.265Z,27.03
2022-08-17T10:51:33.249Z,27.02
2022-08-17T10:52:33.235Z,27.02
2022-08-17T10:53:33.682Z,27.05
2022-08-17T10:54:33.226Z,27.15
2022-08-17T10:55:34.145Z,27.09
2022-08-17T10:56:33.191Z,27.12
2022-08-17T10:57:33.196Z,27.16
2022-08-17T10:58:34.140Z,27.03
2022-08-17T10:59:33.199Z,27.02
2022-08-17T11:00:33.255Z,26.97
2022-08-17T11:01:35.721Z,27.02
2022-08-17T11:02:35.654Z,26.93
2022-08-17T11:03:35.649Z,26.88
2022-08-17T11:04:33.645Z,26.79
2022-08-17T11:05:33.175Z,26.81
2022-08-17T11:06:35.654Z,26.83
2022-08-17T11:07:35.153Z,26.81
2022-08-17T11:08:33.083Z,26.71
2022-08-17T11:09:39.661Z,26.84
2022-08-17T11:10:33.065Z,26.87
2022-08-17T11:11:35.738Z,26.88
2022-08-17T11:12:33.053Z,26.97
2022-08-17T11:13:33.642Z,27.03
2022-08-17T11:14:33.025Z,27.09
2022-08-17T11:15:32.989Z,27.09
2022-08-17T11:16:32.977Z,27.15
2022-08-17T11:17:32.966Z,27.18
2022-08-17T11:18:32.949Z,27.28
2022-08-17T11:19:32.975Z,27.15
2022-08-17T11:20:33.651Z,26.90
2022-08-17T11:21:32.962Z,26.72
2022-08-17T11:22:33.835Z,26.75
2022-08-17T11:23:32.907Z,26.69
2022-08-17T11:24:32.892Z,26.79
2022-08-17T11:25:32.900Z,26.72
2022-08-17T11:26:34.158Z,26.65
2022-08-17T11:27:35.664Z,26.56
2022-08-17T11:28:32.850Z,26.65
2022-08-17T11:29:35.666Z,26.60
2022-08-17T11:30:32.822Z,26.61
2022-08-17T11:31:39.029Z,26.66
2022-08-17T11:32:33.842Z,26.64
2022-08-17T11:33:32.790Z,26.75
2022-08-17T11:34:32.783Z,26.64
2022-08-17T11:35:32.763Z,26.83
2022-08-17T11:36:33.658Z,26.87
2022-08-17T11:37:32.809Z,26.90
2022-08-17T11:38:32.771Z,26.98
2022-08-17T11:39:32.768Z,26.98
2022-08-17T11:40:32.726Z,26.97
2022-08-17T11:41:32.699Z,26.87
2022-08-17T11:42:32.717Z,26.69
2022-08-17T11:43:32.679Z,26.59
2022-08-17T11:44:32.697Z,26.59
2022-08-17T11:45:33.192Z,26.51
2022-08-17T11:46:32.648Z,26.51
2022-08-17T11:47:32.755Z,26.42
2022-08-17T11:48:32.975Z,26.46
2022-08-17T11:49:32.611Z,26.36
2022-08-17T11:50:33.164Z,26.36
2022-08-17T11:51:32.594Z,26.38
2022-08-17T11:52:33.171Z,26.24
2022-08-17T11:53:32.597Z,26.31
2022-08-17T11:54:34.476Z,26.23
2022-08-17T11:55:38.503Z,26.19
2022-08-17T11:56:33.569Z,26.20
2022-08-17T11:57:32.530Z,26.19
2022-08-17T11:58:35.161Z,26.24
2022-08-17T11:59:32.569Z,26.23
2022-08-17T12:00:32.510Z,26.28
2022-08-17T12:01:32.506Z,26.34
2022-08-17T12:02:33.174Z,26.27
2022-08-17T12:03:32.514Z,26.29
2022-08-17T12:04:32.559Z,26.31
2022-08-17T12:05:32.473Z,26.24
2022-08-17T12:06:32.455Z,26.35
2022-08-17T12:07:32.422Z,26.35
2022-08-17T12:08:32.422Z,26.46
2022-08-17T12:09:33.162Z,26.47
2022-08-17T12:10:33.945Z,26.49
2022-08-17T12:11:57.833Z,26.46
2022-08-17T12:12:33.389Z,26.38
2022-08-17T12:13:38.669Z,26.41
2022-08-17T12:15:08.440Z,26.47
2022-08-17T12:15:33.379Z,26.57
2022-08-17T12:16:32.342Z,26.64
2022-08-17T12:17:41.029Z,26.61
2022-08-17T12:18:33.312Z,26.71
2022-08-17T12:19:32.335Z,26.86
2022-08-17T12:20:32.306Z,26.81
2022-08-17T12:21:32.319Z,26.83
2022-08-17T12:22:33.175Z,26.73
2022-08-17T12:23:32.270Z,26.75
2022-08-17T12:24:32.252Z,26.78
2022-08-17T12:25:32.242Z,26.72
2022-08-17T12:26:32.249Z,26.71
2022-08-17T12:27:46.204Z,26.69
2022-08-17T12:28:33.216Z,26.65
2022-08-17T12:29:38.893Z,26.73
2022-08-17T12:30:33.193Z,26.75
2022-08-17T12:31:32.208Z,26.79
2022-08-17T12:32:32.164Z,26.71
2022-08-17T12:33:32.159Z,26.73
2022-08-17T12:34:32.146Z,26.60
2022-08-17T12:35:32.674Z,26.60
2022-08-17T12:36:32.676Z,26.42
2022-08-17T12:37:32.148Z,26.42
2022-08-17T12:38:33.579Z,26.41
2022-08-17T12:39:34.045Z,26.44
2022-08-17T12:40:32.079Z,26.41
2022-08-17T12:41:32.078Z,26.34
2022-08-17T12:42:32.089Z,26.32
2022-08-17T12:43:32.055Z,26.29
2022-08-17T12:44:32.036Z,26.27
2022-08-17T12:45:32.034Z,26.28
2022-08-17T12:46:34.667Z,26.23
2022-08-17T12:47:32.044Z,26.31
2022-08-17T12:48:31.992Z,26.19
2022-08-17T12:49:31.999Z,26.32
2022-08-17T12:50:31.994Z,26.24
2022-08-17T12:51:32.674Z,26.28